Ray City, Georgia
Current Conditions -  °F | °C
As of 8:58 PM on Wednesday 22 Oct 2014 (Local Time) from KVAD Reporting Station
Clear Clear  
Wind Chill: 58°   Ceiling: Unl
Heat Index: 58°   Visibility: 10mi
Dew Point: 46°   Wind: 3mph
Humidity: 64%   Direction: 30°NNE
Pressure: 30.05"   Gusts: NA
Location:  31.07°N, 83.2°W
Report Text: KVAD 230058Z AUTO 03003KT 10SM CLR 15/08 A3005 RMK AO2 SLP178 T01460079 $
Loading
Personal Weather Stations






























Interactive Weather Map
Tropical Storm Tracking
New forecast layout! Learn more

10-Day Weather Forecast

Advertisements
Track Severe Weather on mobile